createdAt,value
2023-05-06T04:23:02.845Z,101243.50
2023-05-06T04:25:30.475Z,101248.63
2023-05-06T04:27:57.898Z,101246.16
2023-05-06T04:30:25.433Z,101252.31
2023-05-06T04:32:53.229Z,101248.63
2023-05-06T04:35:21.048Z,101254.53
2023-05-06T04:37:49.215Z,101264.22
2023-05-06T04:40:26.526Z,101259.69
2023-05-06T04:42:54.572Z,101263.34
2023-05-06T04:45:26.503Z,101262.44
2023-05-06T04:47:55.385Z,101257.66
2023-05-06T04:50:22.901Z,101268.09
2023-05-06T04:52:50.280Z,101264.41
2023-05-06T04:55:19.537Z,101259.66
2023-05-06T04:57:52.185Z,101259.66
2023-05-06T05:00:19.832Z,101247.59
2023-05-06T05:02:47.296Z,101254.75
2023-05-06T05:05:35.151Z,101252.88
2023-05-06T05:08:05.197Z,101256.13
2023-05-06T05:10:35.955Z,101257.28
2023-05-06T05:13:03.479Z,101260.06
2023-05-06T05:15:31.377Z,101254.59
2023-05-06T05:17:59.062Z,101250.09
2023-05-06T05:20:27.046Z,101259.94
2023-05-06T05:22:54.450Z,101258.13
2023-05-06T05:25:40.605Z,101259.53
2023-05-06T05:28:08.227Z,101261.59
2023-05-06T05:30:37.407Z,101261.22
2023-05-06T05:33:05.630Z,101259.78
2023-05-06T05:35:32.995Z,101258.38
2023-05-06T05:38:02.092Z,101254.66
2023-05-06T05:40:29.529Z,101245.97
2023-05-06T05:42:56.961Z,101249.19
2023-05-06T05:45:31.188Z,101253.09
2023-05-06T05:47:59.362Z,101247.69
2023-05-06T05:50:26.859Z,101247.41
2023-05-06T05:52:55.856Z,101254.34
2023-05-06T05:55:23.337Z,101250.56
2023-05-06T05:57:51.828Z,101239.19
2023-05-06T06:00:21.582Z,101245.72
2023-05-06T06:02:55.619Z,101251.41
2023-05-06T06:05:23.099Z,101246.63
2023-05-06T06:07:51.798Z,101240.16
2023-05-06T06:10:19.305Z,101257.09
2023-05-06T06:13:06.396Z,101234.34
2023-05-06T06:15:34.188Z,101240.22
2023-05-06T06:18:02.415Z,101230.31
2023-05-06T06:20:30.756Z,101237.59
2023-05-06T06:22:59.067Z,101234.25
2023-05-06T06:25:26.425Z,101239.06
2023-05-06T06:27:55.887Z,101235.47
2023-05-06T06:30:29.752Z,101234.97
2023-05-06T06:32:59.060Z,101238.38
2023-05-06T06:35:27.153Z,101228.38
2023-05-06T06:37:55.246Z,101228.03
2023-05-06T06:40:23.053Z,101224.69
2023-05-06T06:42:51.580Z,101227.25
2023-05-06T06:45:32.148Z,101234.94
2023-05-06T06:47:59.535Z,101236.72
2023-05-06T06:50:27.236Z,101235.19
2023-05-06T06:52:54.522Z,101231.03
2023-05-06T06:55:22.005Z,101231.94
2023-05-06T06:57:49.496Z,101238.03
2023-05-06T07:00:17.093Z,101232.19
2023-05-06T07:02:44.666Z,101234.22
2023-05-06T07:05:12.233Z,101224.06
2023-05-06T07:07:39.909Z,101231.41
2023-05-06T07:10:07.878Z,101222.06
2023-05-06T07:12:35.493Z,101233.03
2023-05-06T07:15:07.139Z,101235.03
2023-05-06T07:17:34.668Z,101234.91
2023-05-06T07:20:02.074Z,101233.13
2023-05-06T07:22:31.670Z,101232.44
2023-05-06T07:24:59.467Z,101226.00
2023-05-06T07:27:27.697Z,101225.63
2023-05-06T07:29:55.119Z,101227.84
2023-05-06T07:32:22.763Z,101231.97
2023-05-06T07:34:50.208Z,101235.09
2023-05-06T07:37:17.518Z,101236.69
2023-05-06T07:39:44.933Z,101236.69
2023-05-06T07:42:13.447Z,101225.38
2023-05-06T07:44:40.967Z,101233.53
2023-05-06T07:47:08.362Z,101232.84
2023-05-06T07:49:35.900Z,101233.66
2023-05-06T07:52:03.893Z,101234.78
2023-05-06T07:54:32.005Z,101230.63
2023-05-06T07:57:18.152Z,101232.00
2023-05-06T07:59:50.278Z,101239.47
2023-05-06T08:02:17.908Z,101236.28
2023-05-06T08:04:47.278Z,101234.97
2023-05-06T08:07:16.340Z,101238.59
2023-05-06T08:09:43.684Z,101229.72
2023-05-06T08:12:11.240Z,101230.06
2023-05-06T08:14:57.199Z,101225.03
2023-05-06T08:17:24.501Z,101221.81
2023-05-06T08:19:51.737Z,101222.09
2023-05-06T08:22:19.225Z,101219.00
2023-05-06T08:24:46.556Z,101222.00
2023-05-06T08:27:13.918Z,101219.41
2023-05-06T08:29:41.261Z,101217.16
2023-05-06T08:32:08.672Z,101218.53
2023-05-06T08:34:36.283Z,101213.97
2023-05-06T08:37:03.587Z,101219.19
2023-05-06T08:39:31.632Z,101207.63
2023-05-06T08:42:02.277Z,101216.34
2023-05-06T08:44:29.929Z,101211.91
2023-05-06T08:47:16.002Z,101207.50
2023-05-06T08:49:43.682Z,101208.72
2023-05-06T08:52:12.125Z,101216.94
2023-05-06T08:54:40.867Z,101218.41
2023-05-06T08:57:12.584Z,101217.47
2023-05-06T09:02:08.786Z,101215.63
2023-05-06T09:04:37.541Z,101211.69
2023-05-06T09:07:04.827Z,101212.91
2023-05-06T09:09:32.290Z,101212.00
2023-05-06T09:12:02.094Z,101212.47
2023-05-06T09:14:29.633Z,101209.22
2023-05-06T09:19:41.566Z,101205.63
2023-05-06T09:22:09.297Z,101202.47
2023-05-06T09:24:37.639Z,101191.06
2023-05-06T09:27:05.137Z,101194.31
2023-05-06T09:29:32.366Z,101191.78
2023-05-06T09:32:06.081Z,101193.84
2023-05-06T09:34:33.773Z,101193.69
2023-05-06T09:37:01.514Z,101191.19
2023-05-06T09:39:28.912Z,101192.66
2023-05-06T09:41:56.817Z,101185.97
2023-05-06T09:44:24.818Z,101186.28
2023-05-06T09:46:52.492Z,101186.50
2023-05-06T09:49:19.885Z,101188.34
2023-05-06T09:51:51.676Z,101192.56
2023-05-06T09:54:19.650Z,101179.88
2023-05-06T09:56:48.246Z,101180.47
2023-05-06T09:59:18.700Z,101183.09
2023-05-06T10:01:46.232Z,101185.94
2023-05-06T10:04:16.049Z,101184.44
2023-05-06T10:06:44.444Z,101175.66
2023-05-06T10:09:12.642Z,101169.13
2023-05-06T10:11:40.738Z,101186.59
2023-05-06T10:14:09.456Z,101200.22
2023-05-06T10:16:37.904Z,101192.00
2023-05-06T10:19:07.688Z,101205.38
2023-05-06T10:22:07.353Z,101210.91
2023-05-06T10:25:03.308Z,101202.31
2023-05-06T10:27:33.270Z,101214.88
2023-05-06T10:30:01.209Z,101210.50
2023-05-06T10:32:33.461Z,101229.38
2023-05-06T10:35:18.119Z,101226.16
2023-05-06T10:37:49.925Z,101222.81
2023-05-06T10:40:17.583Z,101223.31
2023-05-06T10:42:45.081Z,101221.25
2023-05-06T10:45:12.444Z,101224.63
2023-05-06T10:47:56.824Z,101228.72
2023-05-06T10:50:26.727Z,101229.19
2023-05-06T10:53:01.907Z,101237.25
2023-05-06T10:55:36.212Z,101248.34
2023-05-06T10:58:12.599Z,101245.88
2023-05-06T11:03:24.563Z,101257.66
2023-05-06T11:05:52.793Z,101248.66
2023-05-06T11:08:25.562Z,101247.97
2023-05-06T11:10:56.019Z,101247.63
2023-05-06T11:13:24.903Z,101248.31
2023-05-06T11:15:52.887Z,101248.53
2023-05-06T11:18:33.860Z,101251.25
2023-05-06T11:21:03.799Z,101244.56
2023-05-06T11:23:47.244Z,101249.66
2023-05-06T11:26:34.426Z,101243.50
2023-05-06T11:29:04.319Z,101236.09
2023-05-06T11:31:39.117Z,101240.16
2023-05-06T11:34:12.178Z,101245.81
2023-05-06T11:36:53.710Z,101239.28
2023-05-06T11:39:21.503Z,101245.63
2023-05-06T11:41:48.976Z,101236.38
2023-05-06T11:44:31.239Z,101242.81
2023-05-06T11:49:53.565Z,101238.97
2023-05-06T11:52:21.293Z,101237.47
2023-05-06T11:54:51.000Z,101234.00
2023-05-06T11:57:20.444Z,101240.00
2023-05-06T11:59:53.530Z,101244.44
2023-05-06T12:02:21.854Z,101245.81
2023-05-06T12:04:53.539Z,101255.34
2023-05-06T12:07:21.055Z,101250.25
2023-05-06T12:09:50.240Z,101255.03
2023-05-06T12:12:24.091Z,101258.47
2023-05-06T12:14:52.649Z,101266.78
2023-05-06T12:17:20.417Z,101270.53
2023-05-06T12:19:47.906Z,101259.47
2023-05-06T12:22:24.882Z,101265.19
2023-05-06T12:24:52.819Z,101261.34
2023-05-06T12:27:33.959Z,101270.72
2023-05-06T12:30:01.848Z,101272.50
2023-05-06T12:32:33.041Z,101276.22
2023-05-06T12:35:19.709Z,101281.50
2023-05-06T12:37:47.373Z,101276.72
2023-05-06T12:40:18.420Z,101280.94
2023-05-06T12:42:45.850Z,101273.03
2023-05-06T12:45:15.053Z,101268.97
2023-05-06T12:47:53.943Z,101272.00
2023-05-06T12:50:36.705Z,101267.25
2023-05-06T12:53:05.448Z,101267.50
2023-05-06T12:55:40.377Z,101268.84
2023-05-06T12:58:19.253Z,101271.63
2023-05-06T13:00:46.854Z,101272.22
2023-05-06T13:03:14.395Z,101265.19
2023-05-06T13:05:42.285Z,101260.19
2023-05-06T13:08:09.600Z,101253.78
2023-05-06T13:10:37.013Z,101247.03
2023-05-06T13:13:04.404Z,101249.25
2023-05-06T13:15:32.110Z,101248.09
2023-05-06T13:17:59.446Z,101249.59
2023-05-06T13:20:27.627Z,101249.84
2023-05-06T13:22:55.378Z,101245.41
2023-05-06T13:25:23.562Z,101246.00
2023-05-06T13:27:50.997Z,101242.97
2023-05-06T13:30:18.335Z,101244.34
2023-05-06T13:32:46.989Z,101250.22
2023-05-06T13:35:14.420Z,101238.97
2023-05-06T13:37:41.813Z,101243.72
2023-05-06T13:40:10.210Z,101243.63
2023-05-06T13:42:37.585Z,101246.88
2023-05-06T13:45:05.417Z,101257.94
2023-05-06T13:47:33.108Z,101264.78
2023-05-06T13:50:00.344Z,101258.31
2023-05-06T13:52:46.395Z,101255.19
2023-05-06T13:55:13.855Z,101246.56
2023-05-06T13:57:41.152Z,101254.00
2023-05-06T14:00:11.120Z,101252.34
2023-05-06T14:02:38.600Z,101250.97
2023-05-06T14:05:06.548Z,101253.16
2023-05-06T14:07:33.904Z,101251.69
2023-05-06T14:10:01.284Z,101250.06
2023-05-06T14:12:31.541Z,101245.06
2023-05-06T14:14:58.729Z,101251.25
2023-05-06T14:20:10.971Z,101240.88
2023-05-06T14:22:41.690Z,101237.34
2023-05-06T14:25:09.797Z,101240.88
2023-05-06T14:27:37.349Z,101248.28
2023-05-06T14:30:08.510Z,101261.13
2023-05-06T14:32:37.358Z,101261.44
2023-05-06T14:35:05.605Z,101257.38
2023-05-06T14:37:33.253Z,101268.19
2023-05-06T14:40:00.646Z,101270.53
2023-05-06T14:42:28.083Z,101275.19
2023-05-06T14:44:55.388Z,101274.91
2023-05-06T14:47:23.854Z,101276.38
2023-05-06T14:49:51.198Z,101284.47
2023-05-06T14:52:18.645Z,101282.50
2023-05-06T14:54:45.992Z,101289.53
2023-05-06T14:57:13.399Z,101295.38
2023-05-06T14:59:40.709Z,101302.78
2023-05-06T15:02:09.942Z,101306.59
2023-05-06T15:04:56.069Z,101309.31
2023-05-06T15:07:23.437Z,101299.94
2023-05-06T15:09:50.799Z,101300.59
2023-05-06T15:12:18.301Z,101297.56
2023-05-06T15:14:45.601Z,101298.22
2023-05-06T15:17:13.715Z,101290.19
2023-05-06T15:19:41.176Z,101290.34
2023-05-06T15:22:08.422Z,101283.34
2023-05-06T15:24:36.209Z,101282.97
2023-05-06T15:27:03.644Z,101284.44
2023-05-06T15:29:31.358Z,101277.66
2023-05-06T15:31:58.840Z,101276.81
2023-05-06T15:34:26.245Z,101289.22
2023-05-06T15:37:12.350Z,101298.72
2023-05-06T15:39:39.784Z,101292.19
2023-05-06T15:42:07.168Z,101299.63
2023-05-06T15:44:34.563Z,101297.97
2023-05-06T15:47:01.816Z,101306.59
2023-05-06T15:52:01.094Z,101326.75
2023-05-06T15:54:29.153Z,101336.19
2023-05-06T15:56:57.090Z,101352.31
2023-05-06T15:59:24.356Z,101361.84
2023-05-06T16:02:25.335Z,101361.88
2023-05-06T16:04:39.434Z,101370.03
2023-05-06T16:07:07.867Z,101384.69
2023-05-06T16:09:35.299Z,101375.69
2023-05-06T16:12:02.782Z,101374.50
2023-05-06T16:14:30.017Z,101383.13
2023-05-06T16:16:58.761Z,101377.59
2023-05-06T16:19:26.439Z,101368.56
2023-05-06T16:21:54.692Z,101365.06
2023-05-06T16:24:21.985Z,101371.66
2023-05-06T16:26:49.384Z,101365.94
2023-05-06T16:29:19.324Z,101364.47
2023-05-06T16:31:50.102Z,101366.75
2023-05-06T16:34:17.554Z,101366.34
2023-05-06T16:36:44.948Z,101361.81
2023-05-06T16:39:12.313Z,101360.41
2023-05-06T16:41:58.408Z,101352.38
2023-05-06T16:44:25.778Z,101355.06
2023-05-06T16:46:53.179Z,101342.53
2023-05-06T16:49:21.371Z,101348.28
2023-05-06T16:51:48.666Z,101350.97
2023-05-06T16:54:16.048Z,101341.75
2023-05-06T16:56:51.309Z,101349.38
2023-05-06T16:59:22.213Z,101351.84
2023-05-06T17:01:50.631Z,101342.84
2023-05-06T17:04:18.050Z,101352.06
2023-05-06T17:06:45.456Z,101363.78
2023-05-06T17:09:12.896Z,101355.19
2023-05-06T17:11:40.210Z,101355.78
2023-05-06T17:14:07.788Z,101359.47
2023-05-06T17:16:35.325Z,101363.19
2023-05-06T17:19:02.713Z,101360.31
2023-05-06T17:21:30.183Z,101369.31
2023-05-06T17:23:58.970Z,101378.16
2023-05-06T17:26:26.604Z,101399.28
2023-05-06T17:28:54.239Z,101403.16
2023-05-06T17:31:21.885Z,101412.78
2023-05-06T17:33:49.152Z,101414.81
2023-05-06T17:36:19.049Z,101404.53
2023-05-06T17:38:46.710Z,101399.53
2023-05-06T17:41:14.053Z,101397.47
2023-05-06T17:43:41.744Z,101416.88
2023-05-06T17:46:09.777Z,101398.97
2023-05-06T17:48:37.227Z,101395.19
2023-05-06T17:51:04.656Z,101412.06
2023-05-06T17:53:34.308Z,101411.34
2023-05-06T17:56:01.720Z,101415.63
2023-05-06T17:58:29.231Z,101414.28
2023-05-06T18:00:57.665Z,101415.28
2023-05-06T18:03:25.300Z,101417.25
2023-05-06T18:05:52.784Z,101439.72
2023-05-06T18:08:20.069Z,101434.81
2023-05-06T18:10:47.460Z,101440.63
2023-05-06T18:13:14.904Z,101464.84
2023-05-06T18:15:43.186Z,101449.44
2023-05-06T18:18:10.977Z,101453.59
2023-05-06T18:20:38.508Z,101453.16
2023-05-06T18:23:08.489Z,101437.50
2023-05-06T18:25:36.134Z,101455.47
2023-05-06T18:28:05.270Z,101446.41
2023-05-06T18:30:32.718Z,101449.00
2023-05-06T18:33:00.122Z,101448.28
2023-05-06T18:35:27.523Z,101452.38
2023-05-06T18:37:54.897Z,101460.94
2023-05-06T18:40:22.414Z,101463.78
2023-05-06T18:42:49.879Z,101452.25
2023-05-06T18:45:17.342Z,101459.94
2023-05-06T18:47:44.746Z,101470.47
2023-05-06T18:50:12.262Z,101467.53
2023-05-06T18:52:39.630Z,101471.66
2023-05-06T18:55:07.790Z,101483.94
2023-05-06T18:57:35.350Z,101478.88
2023-05-06T19:00:02.724Z,101494.91
2023-05-06T19:02:33.167Z,101488.13
2023-05-06T19:05:00.922Z,101501.59
2023-05-06T19:07:28.330Z,101505.59
2023-05-06T19:09:55.658Z,101507.91
2023-05-06T19:12:23.618Z,101531.81
2023-05-06T19:14:50.956Z,101534.28
2023-05-06T19:17:18.108Z,101534.63
2023-05-06T19:19:47.197Z,101550.56
2023-05-06T19:22:15.772Z,101550.16
2023-05-06T19:24:43.178Z,101534.06
2023-05-06T19:27:11.087Z,101543.69
2023-05-06T19:29:38.399Z,101527.69
2023-05-06T19:32:06.157Z,101537.47
2023-05-06T19:34:52.151Z,101531.59
2023-05-06T19:37:19.585Z,101529.81
2023-05-06T19:39:47.905Z,101550.88
2023-05-06T19:42:16.162Z,101535.50
2023-05-06T19:44:43.527Z,101541.97
2023-05-06T19:47:10.988Z,101544.66
2023-05-06T19:49:38.365Z,101549.34
2023-05-06T19:52:05.771Z,101542.19
2023-05-06T19:54:33.120Z,101544.72
2023-05-06T19:57:00.979Z,101540.59
2023-05-06T19:59:28.214Z,101542.13
2023-05-06T20:01:57.356Z,101544.50
2023-05-06T20:04:43.772Z,101559.72
2023-05-06T20:07:14.177Z,101559.25
2023-05-06T20:09:41.477Z,101561.25
2023-05-06T20:12:08.903Z,101562.31
2023-05-06T20:14:36.316Z,101556.53
2023-05-06T20:17:03.761Z,101541.13
2023-05-06T20:19:31.589Z,101563.19
2023-05-06T20:21:59.754Z,101552.09
2023-05-06T20:24:29.741Z,101551.28
2023-05-06T20:26:59.223Z,101552.81
2023-05-06T20:29:26.655Z,101550.00
2023-05-06T20:31:54.246Z,101557.31
2023-05-06T20:34:21.670Z,101555.31
2023-05-06T20:36:50.194Z,101558.16
2023-05-06T20:39:17.612Z,101555.66
2023-05-06T20:41:45.088Z,101564.28
2023-05-06T20:44:12.484Z,101562.09
2023-05-06T20:46:39.908Z,101571.56
2023-05-06T20:49:07.945Z,101566.56
2023-05-06T20:51:35.371Z,101566.25
2023-05-06T20:54:02.656Z,101571.22
2023-05-06T20:56:29.908Z,101566.63
2023-05-06T20:58:57.322Z,101585.81
2023-05-06T21:01:25.845Z,101572.44
